sensor_id;sensor_type;location;lat;lon;timestamp;P1;durP1;ratioP1;P2;durP2;ratioP2
52274;SDS011;38228;50.940;4.024;2024-03-08T00:01:09;46.13;;;18.17;;
52274;SDS011;38228;50.940;4.024;2024-03-08T00:03:35;35.33;;;18.13;;
52274;SDS011;38228;50.940;4.024;2024-03-08T00:06:01;34.17;;;18.35;;
52274;SDS011;38228;50.940;4.024;2024-03-08T00:08:27;35.03;;;17.48;;
52274;SDS011;38228;50.940;4.024;2024-03-08T00:10:53;37.42;;;18.50;;
52274;SDS011;38228;50.940;4.024;2024-03-08T00:13:21;36.80;;;17.63;;
52274;SDS011;38228;50.940;4.024;2024-03-08T00:15:46;40.40;;;17.98;;
52274;SDS011;38228;50.940;4.024;2024-03-08T00:18:12;34.55;;;17.98;;
52274;SDS011;38228;50.940;4.024;2024-03-08T00:20:38;37.00;;;17.80;;
52274;SDS011;38228;50.940;4.024;2024-03-08T00:23:04;35.00;;;17.73;;
52274;SDS011;38228;50.940;4.024;2024-03-08T00:25:29;39.15;;;17.25;;
52274;SDS011;38228;50.940;4.024;2024-03-08T00:27:55;40.30;;;18.05;;
52274;SDS011;38228;50.940;4.024;2024-03-08T00:30:22;37.72;;;17.70;;
52274;SDS011;38228;50.940;4.024;2024-03-08T00:32:48;42.47;;;17.65;;
52274;SDS011;38228;50.940;4.024;2024-03-08T00:35:14;36.08;;;17.02;;
52274;SDS011;38228;50.940;4.024;2024-03-08T00:37:40;35.92;;;15.88;;
52274;SDS011;38228;50.940;4.024;2024-03-08T00:40:12;35.88;;;17.38;;
52274;SDS011;38228;50.940;4.024;2024-03-08T00:42:38;40.45;;;18.13;;
52274;SDS011;38228;50.940;4.024;2024-03-08T00:45:05;38.63;;;18.38;;
52274;SDS011;38228;50.940;4.024;2024-03-08T00:47:31;37.10;;;16.83;;
52274;SDS011;38228;50.940;4.024;2024-03-08T00:49:57;35.55;;;17.70;;
52274;SDS011;38228;50.940;4.024;2024-03-08T00:52:22;38.33;;;17.13;;
52274;SDS011;38228;50.940;4.024;2024-03-08T00:54:51;36.65;;;18.63;;
52274;SDS011;38228;50.940;4.024;2024-03-08T00:57:17;42.22;;;19.05;;
52274;SDS011;38228;50.940;4.024;2024-03-08T00:59:43;38.63;;;18.83;;
52274;SDS011;38228;50.940;4.024;2024-03-08T01:02:08;40.80;;;18.63;;
52274;SDS011;38228;50.940;4.024;2024-03-08T01:04:35;39.80;;;18.70;;
52274;SDS011;38228;50.940;4.024;2024-03-08T01:07:01;43.40;;;18.52;;
52274;SDS011;38228;50.940;4.024;2024-03-08T01:09:27;44.35;;;19.33;;
52274;SDS011;38228;50.940;4.024;2024-03-08T01:11:54;42.10;;;19.02;;
52274;SDS011;38228;50.940;4.024;2024-03-08T01:14:20;43.13;;;18.80;;
52274;SDS011;38228;50.940;4.024;2024-03-08T01:19:22;40.33;;;17.90;;
52274;SDS011;38228;50.940;4.024;2024-03-08T01:21:48;41.85;;;20.02;;
52274;SDS011;38228;50.940;4.024;2024-03-08T01:24:14;43.80;;;19.42;;
52274;SDS011;38228;50.940;4.024;2024-03-08T01:26:40;39.80;;;18.75;;
52274;SDS011;38228;50.940;4.024;2024-03-08T01:29:05;41.13;;;20.38;;
52274;SDS011;38228;50.940;4.024;2024-03-08T01:31:31;47.67;;;19.92;;
52274;SDS011;38228;50.940;4.024;2024-03-08T01:34:00;43.88;;;20.75;;
52274;SDS011;38228;50.940;4.024;2024-03-08T01:36:26;42.10;;;19.92;;
52274;SDS011;38228;50.940;4.024;2024-03-08T01:38:52;47.65;;;20.73;;
52274;SDS011;38228;50.940;4.024;2024-03-08T01:41:18;45.67;;;20.15;;
52274;SDS011;38228;50.940;4.024;2024-03-08T01:43:44;43.55;;;21.45;;
52274;SDS011;38228;50.940;4.024;2024-03-08T01:46:10;45.05;;;20.50;;
52274;SDS011;38228;50.940;4.024;2024-03-08T01:48:41;45.38;;;20.25;;
52274;SDS011;38228;50.940;4.024;2024-03-08T01:51:07;46.33;;;21.83;;
52274;SDS011;38228;50.940;4.024;2024-03-08T01:53:33;46.20;;;20.67;;
52274;SDS011;38228;50.940;4.024;2024-03-08T01:56:00;46.55;;;20.55;;
52274;SDS011;38228;50.940;4.024;2024-03-08T01:58:27;48.50;;;21.00;;
52274;SDS011;38228;50.940;4.024;2024-03-08T02:00:54;47.90;;;21.63;;
52274;SDS011;38228;50.940;4.024;2024-03-08T02:03:22;43.15;;;20.20;;
52274;SDS011;38228;50.940;4.024;2024-03-08T02:05:47;46.38;;;21.48;;
52274;SDS011;38228;50.940;4.024;2024-03-08T02:08:14;44.33;;;20.65;;
52274;SDS011;38228;50.940;4.024;2024-03-08T02:10:41;44.00;;;21.60;;
52274;SDS011;38228;50.940;4.024;2024-03-08T02:13:07;43.25;;;21.23;;
52274;SDS011;38228;50.940;4.024;2024-03-08T02:18:25;46.28;;;21.88;;
52274;SDS011;38228;50.940;4.024;2024-03-08T02:23:21;45.13;;;21.05;;
52274;SDS011;38228;50.940;4.024;2024-03-08T02:25:47;44.85;;;21.33;;
52274;SDS011;38228;50.940;4.024;2024-03-08T02:28:14;44.65;;;21.40;;
52274;SDS011;38228;50.940;4.024;2024-03-08T02:30:40;45.63;;;20.25;;
52274;SDS011;38228;50.940;4.024;2024-03-08T02:33:06;44.63;;;20.58;;
52274;SDS011;38228;50.940;4.024;2024-03-08T02:35:34;44.60;;;21.90;;
52274;SDS011;38228;50.940;4.024;2024-03-08T02:38:01;47.70;;;21.95;;
52274;SDS011;38228;50.940;4.024;2024-03-08T02:40:28;47.50;;;22.25;;
52274;SDS011;38228;50.940;4.024;2024-03-08T02:42:54;43.42;;;22.13;;
52274;SDS011;38228;50.940;4.024;2024-03-08T02:45:20;45.72;;;22.70;;
52274;SDS011;38228;50.940;4.024;2024-03-08T02:47:46;43.10;;;22.33;;
52274;SDS011;38228;50.940;4.024;2024-03-08T02:50:14;43.20;;;21.55;;
52274;SDS011;38228;50.940;4.024;2024-03-08T02:52:41;45.05;;;23.17;;
52274;SDS011;38228;50.940;4.024;2024-03-08T02:55:11;46.38;;;22.85;;
52274;SDS011;38228;50.940;4.024;2024-03-08T02:57:40;49.97;;;23.73;;
52274;SDS011;38228;50.940;4.024;2024-03-08T03:00:06;47.05;;;22.08;;
52274;SDS011;38228;50.940;4.024;2024-03-08T03:02:34;43.17;;;22.20;;
52274;SDS011;38228;50.940;4.024;2024-03-08T03:05:00;44.92;;;22.80;;
52274;SDS011;38228;50.940;4.024;2024-03-08T03:07:34;44.30;;;23.25;;
52274;SDS011;38228;50.940;4.024;2024-03-08T03:10:00;44.47;;;21.88;;
52274;SDS011;38228;50.940;4.024;2024-03-08T03:12:27;41.28;;;21.45;;
52274;SDS011;38228;50.940;4.024;2024-03-08T03:14:53;44.50;;;22.67;;
52274;SDS011;38228;50.940;4.024;2024-03-08T03:17:19;46.42;;;22.73;;
52274;SDS011;38228;50.940;4.024;2024-03-08T03:19:45;46.80;;;23.95;;
52274;SDS011;38228;50.940;4.024;2024-03-08T03:22:12;47.03;;;22.70;;
52274;SDS011;38228;50.940;4.024;2024-03-08T03:24:37;46.85;;;23.15;;
52274;SDS011;38228;50.940;4.024;2024-03-08T03:27:04;51.05;;;22.63;;
52274;SDS011;38228;50.940;4.024;2024-03-08T03:29:42;43.58;;;22.40;;
52274;SDS011;38228;50.940;4.024;2024-03-08T03:32:12;45.00;;;23.58;;
52274;SDS011;38228;50.940;4.024;2024-03-08T03:34:38;42.25;;;22.58;;
52274;SDS011;38228;50.940;4.024;2024-03-08T03:37:04;44.47;;;23.10;;
52274;SDS011;38228;50.940;4.024;2024-03-08T03:39:32;46.40;;;24.23;;
52274;SDS011;38228;50.940;4.024;2024-03-08T03:41:59;46.97;;;22.30;;
52274;SDS011;38228;50.940;4.024;2024-03-08T03:44:27;43.35;;;23.10;;
52274;SDS011;38228;50.940;4.024;2024-03-08T03:46:53;42.05;;;22.23;;
52274;SDS011;38228;50.940;4.024;2024-03-08T03:49:19;42.50;;;22.40;;
52274;SDS011;38228;50.940;4.024;2024-03-08T03:51:45;42.10;;;23.27;;
52274;SDS011;38228;50.940;4.024;2024-03-08T03:54:11;49.13;;;24.42;;
52274;SDS011;38228;50.940;4.024;2024-03-08T03:56:38;48.92;;;22.60;;
52274;SDS011;38228;50.940;4.024;2024-03-08T03:59:05;47.95;;;24.05;;
52274;SDS011;38228;50.940;4.024;2024-03-08T04:01:31;44.25;;;23.58;;
52274;SDS011;38228;50.940;4.024;2024-03-08T04:03:58;42.60;;;24.20;;
52274;SDS011;38228;50.940;4.024;2024-03-08T04:06:24;40.67;;;21.08;;
52274;SDS011;38228;50.940;4.024;2024-03-08T04:08:49;47.42;;;23.40;;
52274;SDS011;38228;50.940;4.024;2024-03-08T04:11:15;46.83;;;24.25;;
52274;SDS011;38228;50.940;4.024;2024-03-08T04:13:42;43.60;;;24.52;;
52274;SDS011;38228;50.940;4.024;2024-03-08T04:16:08;46.38;;;25.38;;
52274;SDS011;38228;50.940;4.024;2024-03-08T04:18:36;46.17;;;23.05;;
52274;SDS011;38228;50.940;4.024;2024-03-08T04:21:03;41.60;;;23.83;;
52274;SDS011;38228;50.940;4.024;2024-03-08T04:23:31;40.63;;;23.45;;
52274;SDS011;38228;50.940;4.024;2024-03-08T04:26:00;48.40;;;24.17;;
52274;SDS011;38228;50.940;4.024;2024-03-08T04:28:25;46.75;;;24.75;;
52274;SDS011;38228;50.940;4.024;2024-03-08T04:30:51;47.15;;;24.88;;
52274;SDS011;38228;50.940;4.024;2024-03-08T04:33:17;44.63;;;23.58;;
52274;SDS011;38228;50.940;4.024;2024-03-08T04:35:43;42.33;;;24.60;;
52274;SDS011;38228;50.940;4.024;2024-03-08T04:38:10;42.97;;;24.27;;
52274;SDS011;38228;50.940;4.024;2024-03-08T04:40:36;49.60;;;25.40;;
52274;SDS011;38228;50.940;4.024;2024-03-08T04:43:02;50.22;;;27.05;;
52274;SDS011;38228;50.940;4.024;2024-03-08T04:45:28;44.65;;;24.67;;
52274;SDS011;38228;50.940;4.024;2024-03-08T04:47:53;45.00;;;23.48;;
52274;SDS011;38228;50.940;4.024;2024-03-08T04:50:19;45.03;;;23.73;;
52274;SDS011;38228;50.940;4.024;2024-03-08T04:52:45;46.33;;;24.17;;
52274;SDS011;38228;50.940;4.024;2024-03-08T04:55:11;47.40;;;23.75;;
52274;SDS011;38228;50.940;4.024;2024-03-08T04:57:37;43.22;;;23.45;;
52274;SDS011;38228;50.940;4.024;2024-03-08T05:00:03;46.70;;;25.52;;
52274;SDS011;38228;50.940;4.024;2024-03-08T05:02:35;47.17;;;23.75;;
52274;SDS011;38228;50.940;4.024;2024-03-08T05:05:04;46.63;;;24.23;;
52274;SDS011;38228;50.940;4.024;2024-03-08T05:07:31;49.45;;;24.77;;
52274;SDS011;38228;50.940;4.024;2024-03-08T05:10:00;44.95;;;24.20;;
52274;SDS011;38228;50.940;4.024;2024-03-08T05:12:27;46.33;;;24.55;;
52274;SDS011;38228;50.940;4.024;2024-03-08T05:14:53;45.60;;;25.17;;
52274;SDS011;38228;50.940;4.024;2024-03-08T05:17:19;46.50;;;25.13;;
52274;SDS011;38228;50.940;4.024;2024-03-08T05:19:44;41.00;;;22.15;;
52274;SDS011;38228;50.940;4.024;2024-03-08T05:22:10;43.72;;;23.50;;
52274;SDS011;38228;50.940;4.024;2024-03-08T05:24:36;45.53;;;25.40;;
52274;SDS011;38228;50.940;4.024;2024-03-08T05:27:02;46.30;;;24.27;;
52274;SDS011;38228;50.940;4.024;2024-03-08T05:29:28;46.42;;;24.20;;
52274;SDS011;38228;50.940;4.024;2024-03-08T05:31:54;47.53;;;25.85;;
52274;SDS011;38228;50.940;4.024;2024-03-08T05:34:21;46.03;;;24.13;;
52274;SDS011;38228;50.940;4.024;2024-03-08T05:36:50;49.88;;;25.63;;
52274;SDS011;38228;50.940;4.024;2024-03-08T05:39:16;46.58;;;24.23;;
52274;SDS011;38228;50.940;4.024;2024-03-08T05:41:42;47.83;;;25.30;;
52274;SDS011;38228;50.940;4.024;2024-03-08T05:44:09;46.55;;;25.33;;
52274;SDS011;38228;50.940;4.024;2024-03-08T05:46:35;45.63;;;24.67;;
52274;SDS011;38228;50.940;4.024;2024-03-08T05:49:02;44.55;;;23.65;;
52274;SDS011;38228;50.940;4.024;2024-03-08T05:51:34;49.03;;;26.27;;
52274;SDS011;38228;50.940;4.024;2024-03-08T05:54:01;47.63;;;25.30;;
52274;SDS011;38228;50.940;4.024;2024-03-08T05:56:31;43.15;;;24.35;;
52274;SDS011;38228;50.940;4.024;2024-03-08T05:58:57;47.17;;;24.20;;
52274;SDS011;38228;50.940;4.024;2024-03-08T06:01:26;44.88;;;23.80;;
52274;SDS011;38228;50.940;4.024;2024-03-08T06:03:55;49.17;;;24.63;;
52274;SDS011;38228;50.940;4.024;2024-03-08T06:06:25;52.30;;;25.92;;
52274;SDS011;38228;50.940;4.024;2024-03-08T06:08:51;50.55;;;24.92;;
52274;SDS011;38228;50.940;4.024;2024-03-08T06:11:18;50.47;;;25.25;;
52274;SDS011;38228;50.940;4.024;2024-03-08T06:13:48;47.42;;;22.88;;
52274;SDS011;38228;50.940;4.024;2024-03-08T06:16:15;46.65;;;23.45;;
52274;SDS011;38228;50.940;4.024;2024-03-08T06:18:41;45.90;;;23.40;;
52274;SDS011;38228;50.940;4.024;2024-03-08T06:21:06;49.28;;;24.45;;
52274;SDS011;38228;50.940;4.024;2024-03-08T06:23:34;51.35;;;25.20;;
52274;SDS011;38228;50.940;4.024;2024-03-08T06:26:12;46.15;;;24.88;;
52274;SDS011;38228;50.940;4.024;2024-03-08T06:28:38;46.95;;;24.73;;
52274;SDS011;38228;50.940;4.024;2024-03-08T06:31:03;48.33;;;24.73;;
52274;SDS011;38228;50.940;4.024;2024-03-08T06:33:29;48.22;;;24.67;;
52274;SDS011;38228;50.940;4.024;2024-03-08T06:35:57;46.92;;;24.50;;
52274;SDS011;38228;50.940;4.024;2024-03-08T06:38:23;49.58;;;25.30;;
52274;SDS011;38228;50.940;4.024;2024-03-08T06:40:49;50.08;;;25.17;;
52274;SDS011;38228;50.940;4.024;2024-03-08T06:43:16;49.88;;;24.52;;
52274;SDS011;38228;50.940;4.024;2024-03-08T06:45:43;47.50;;;24.50;;
52274;SDS011;38228;50.940;4.024;2024-03-08T06:48:17;46.63;;;24.88;;
52274;SDS011;38228;50.940;4.024;2024-03-08T06:50:44;44.35;;;24.08;;
52274;SDS011;38228;50.940;4.024;2024-03-08T06:53:10;51.05;;;25.25;;
52274;SDS011;38228;50.940;4.024;2024-03-08T06:55:37;49.13;;;25.63;;
52274;SDS011;38228;50.940;4.024;2024-03-08T06:58:03;50.25;;;24.58;;
52274;SDS011;38228;50.940;4.024;2024-03-08T07:00:28;45.22;;;23.60;;
52274;SDS011;38228;50.940;4.024;2024-03-08T07:02:55;44.70;;;24.08;;
52274;SDS011;38228;50.940;4.024;2024-03-08T07:05:26;50.13;;;24.35;;
52274;SDS011;38228;50.940;4.024;2024-03-08T07:07:52;51.70;;;25.90;;
52274;SDS011;38228;50.940;4.024;2024-03-08T07:10:19;47.08;;;24.67;;
52274;SDS011;38228;50.940;4.024;2024-03-08T07:12:51;51.17;;;23.58;;
52274;SDS011;38228;50.940;4.024;2024-03-08T07:15:21;47.58;;;25.08;;
52274;SDS011;38228;50.940;4.024;2024-03-08T07:17:49;47.80;;;24.00;;
52274;SDS011;38228;50.940;4.024;2024-03-08T07:20:17;45.78;;;23.13;;
52274;SDS011;38228;50.940;4.024;2024-03-08T07:22:47;47.40;;;24.00;;
52274;SDS011;38228;50.940;4.024;2024-03-08T07:25:13;46.33;;;24.95;;
52274;SDS011;38228;50.940;4.024;2024-03-08T07:27:54;44.78;;;23.52;;
52274;SDS011;38228;50.940;4.024;2024-03-08T07:30:21;47.38;;;23.73;;
52274;SDS011;38228;50.940;4.024;2024-03-08T07:33:07;46.65;;;23.33;;
52274;SDS011;38228;50.940;4.024;2024-03-08T07:35:33;50.17;;;24.35;;
52274;SDS011;38228;50.940;4.024;2024-03-08T07:38:02;45.25;;;23.58;;
52274;SDS011;38228;50.940;4.024;2024-03-08T07:40:30;51.95;;;23.38;;
52274;SDS011;38228;50.940;4.024;2024-03-08T07:42:56;45.92;;;23.05;;
52274;SDS011;38228;50.940;4.024;2024-03-08T07:45:25;51.63;;;25.08;;
52274;SDS011;38228;50.940;4.024;2024-03-08T07:47:50;40.88;;;22.35;;
52274;SDS011;38228;50.940;4.024;2024-03-08T07:50:16;44.70;;;22.50;;
52274;SDS011;38228;50.940;4.024;2024-03-08T07:52:42;47.90;;;23.90;;
52274;SDS011;38228;50.940;4.024;2024-03-08T07:55:08;43.40;;;22.60;;
52274;SDS011;38228;50.940;4.024;2024-03-08T07:57:35;39.50;;;21.63;;
52274;SDS011;38228;50.940;4.024;2024-03-08T08:00:03;41.67;;;22.27;;
52274;SDS011;38228;50.940;4.024;2024-03-08T08:02:33;44.00;;;22.80;;
52274;SDS011;38228;50.940;4.024;2024-03-08T08:05:00;41.30;;;21.88;;
52274;SDS011;38228;50.940;4.024;2024-03-08T08:07:26;41.60;;;22.27;;
52274;SDS011;38228;50.940;4.024;2024-03-08T08:09:52;44.53;;;24.13;;
52274;SDS011;38228;50.940;4.024;2024-03-08T08:12:18;38.55;;;21.00;;
52274;SDS011;38228;50.940;4.024;2024-03-08T08:14:44;43.40;;;21.88;;
52274;SDS011;38228;50.940;4.024;2024-03-08T08:17:10;42.63;;;21.77;;
52274;SDS011;38228;50.940;4.024;2024-03-08T08:19:37;39.17;;;21.02;;
52274;SDS011;38228;50.940;4.024;2024-03-08T08:22:03;42.03;;;21.90;;
52274;SDS011;38228;50.940;4.024;2024-03-08T08:24:29;42.75;;;21.92;;
52274;SDS011;38228;50.940;4.024;2024-03-08T08:26:55;44.00;;;21.02;;
52274;SDS011;38228;50.940;4.024;2024-03-08T08:29:21;41.00;;;21.58;;
52274;SDS011;38228;50.940;4.024;2024-03-08T08:31:48;42.90;;;21.98;;
52274;SDS011;38228;50.940;4.024;2024-03-08T08:34:15;38.13;;;21.35;;
52274;SDS011;38228;50.940;4.024;2024-03-08T08:36:44;40.05;;;22.08;;
52274;SDS011;38228;50.940;4.024;2024-03-08T08:39:10;42.63;;;21.58;;
52274;SDS011;38228;50.940;4.024;2024-03-08T08:41:38;42.05;;;21.80;;
52274;SDS011;38228;50.940;4.024;2024-03-08T08:44:07;43.08;;;21.65;;
52274;SDS011;38228;50.940;4.024;2024-03-08T08:46:37;39.13;;;20.73;;
52274;SDS011;38228;50.940;4.024;2024-03-08T08:49:04;42.03;;;19.65;;
52274;SDS011;38228;50.940;4.024;2024-03-08T08:51:31;38.35;;;20.05;;
52274;SDS011;38228;50.940;4.024;2024-03-08T08:53:58;40.92;;;20.98;;
52274;SDS011;38228;50.940;4.024;2024-03-08T08:56:24;39.65;;;21.10;;
52274;SDS011;38228;50.940;4.024;2024-03-08T08:58:51;40.42;;;20.90;;
52274;SDS011;38228;50.940;4.024;2024-03-08T09:01:20;36.47;;;19.75;;
52274;SDS011;38228;50.940;4.024;2024-03-08T09:03:46;34.55;;;18.42;;
52274;SDS011;38228;50.940;4.024;2024-03-08T09:06:12;41.30;;;21.20;;
52274;SDS011;38228;50.940;4.024;2024-03-08T09:08:41;39.75;;;20.35;;
52274;SDS011;38228;50.940;4.024;2024-03-08T09:11:09;41.60;;;19.92;;
52274;SDS011;38228;50.940;4.024;2024-03-08T09:13:35;40.22;;;20.40;;
52274;SDS011;38228;50.940;4.024;2024-03-08T09:16:02;40.67;;;21.17;;
52274;SDS011;38228;50.940;4.024;2024-03-08T09:18:30;40.55;;;20.38;;
52274;SDS011;38228;50.940;4.024;2024-03-08T09:20:57;36.55;;;19.73;;
52274;SDS011;38228;50.940;4.024;2024-03-08T09:23:25;38.17;;;19.38;;
52274;SDS011;38228;50.940;4.024;2024-03-08T09:25:55;34.92;;;18.98;;
52274;SDS011;38228;50.940;4.024;2024-03-08T09:28:22;40.40;;;20.45;;
52274;SDS011;38228;50.940;4.024;2024-03-08T09:30:48;31.70;;;18.00;;
52274;SDS011;38228;50.940;4.024;2024-03-08T09:33:14;37.90;;;18.90;;
52274;SDS011;38228;50.940;4.024;2024-03-08T09:35:44;41.10;;;19.80;;
52274;SDS011;38228;50.940;4.024;2024-03-08T09:38:12;39.60;;;18.38;;
52274;SDS011;38228;50.940;4.024;2024-03-08T09:40:38;36.28;;;19.63;;
52274;SDS011;38228;50.940;4.024;2024-03-08T09:43:06;35.10;;;18.20;;
52274;SDS011;38228;50.940;4.024;2024-03-08T09:45:35;33.42;;;18.25;;
52274;SDS011;38228;50.940;4.024;2024-03-08T09:48:05;34.42;;;18.33;;
52274;SDS011;38228;50.940;4.024;2024-03-08T09:50:39;33.90;;;18.20;;
52274;SDS011;38228;50.940;4.024;2024-03-08T09:53:08;32.70;;;17.98;;
52274;SDS011;38228;50.940;4.024;2024-03-08T09:55:39;35.22;;;17.48;;
52274;SDS011;38228;50.940;4.024;2024-03-08T09:58:08;36.47;;;17.13;;
52274;SDS011;38228;50.940;4.024;2024-03-08T10:01:01;32.17;;;17.30;;
52274;SDS011;38228;50.940;4.024;2024-03-08T10:03:29;30.20;;;17.23;;
52274;SDS011;38228;50.940;4.024;2024-03-08T10:05:57;30.95;;;16.90;;
52274;SDS011;38228;50.940;4.024;2024-03-08T10:08:28;32.88;;;17.50;;
52274;SDS011;38228;50.940;4.024;2024-03-08T10:10:55;28.90;;;15.45;;
52274;SDS011;38228;50.940;4.024;2024-03-08T10:13:23;31.33;;;16.40;;
52274;SDS011;38228;50.940;4.024;2024-03-08T10:15:52;32.53;;;18.23;;
52274;SDS011;38228;50.940;4.024;2024-03-08T10:18:18;33.80;;;16.85;;
52274;SDS011;38228;50.940;4.024;2024-03-08T10:20:43;30.48;;;16.40;;
52274;SDS011;38228;50.940;4.024;2024-03-08T10:23:09;30.92;;;16.25;;
52274;SDS011;38228;50.940;4.024;2024-03-08T10:25:35;30.60;;;15.98;;
52274;SDS011;38228;50.940;4.024;2024-03-08T10:28:04;32.22;;;17.00;;
52274;SDS011;38228;50.940;4.024;2024-03-08T10:30:31;34.55;;;17.00;;
52274;SDS011;38228;50.940;4.024;2024-03-08T10:32:59;32.65;;;16.08;;
52274;SDS011;38228;50.940;4.024;2024-03-08T10:35:26;28.77;;;16.45;;
52274;SDS011;38228;50.940;4.024;2024-03-08T10:37:52;28.45;;;16.08;;
52274;SDS011;38228;50.940;4.024;2024-03-08T10:40:25;30.50;;;16.15;;
52274;SDS011;38228;50.940;4.024;2024-03-08T10:45:31;30.67;;;15.80;;
52274;SDS011;38228;50.940;4.024;2024-03-08T10:50:53;24.45;;;14.68;;
52274;SDS011;38228;50.940;4.024;2024-03-08T10:53:19;27.65;;;16.77;;
52274;SDS011;38228;50.940;4.024;2024-03-08T10:55:49;30.02;;;15.90;;
52274;SDS011;38228;50.940;4.024;2024-03-08T10:58:18;25.48;;;15.32;;
52274;SDS011;38228;50.940;4.024;2024-03-08T11:00:48;26.98;;;16.13;;
52274;SDS011;38228;50.940;4.024;2024-03-08T11:04:01;28.15;;;15.90;;
52274;SDS011;38228;50.940;4.024;2024-03-08T11:06:18;26.83;;;16.27;;
52274;SDS011;38228;50.940;4.024;2024-03-08T11:08:54;26.90;;;14.45;;
52274;SDS011;38228;50.940;4.024;2024-03-08T11:11:26;26.85;;;16.33;;
52274;SDS011;38228;50.940;4.024;2024-03-08T11:13:59;28.63;;;16.30;;
52274;SDS011;38228;50.940;4.024;2024-03-08T11:18:58;30.40;;;15.68;;
52274;SDS011;38228;50.940;4.024;2024-03-08T11:21:29;26.98;;;16.08;;
52274;SDS011;38228;50.940;4.024;2024-03-08T11:24:11;25.73;;;15.35;;
52274;SDS011;38228;50.940;4.024;2024-03-08T11:26:38;27.48;;;15.93;;
52274;SDS011;38228;50.940;4.024;2024-03-08T11:31:53;25.85;;;14.98;;
52274;SDS011;38228;50.940;4.024;2024-03-08T11:34:39;25.05;;;15.32;;
52274;SDS011;38228;50.940;4.024;2024-03-08T11:37:15;27.98;;;15.82;;
52274;SDS011;38228;50.940;4.024;2024-03-08T11:39:46;28.17;;;15.55;;
52274;SDS011;38228;50.940;4.024;2024-03-08T11:42:17;29.95;;;15.57;;
52274;SDS011;38228;50.940;4.024;2024-03-08T11:44:44;26.50;;;14.95;;
52274;SDS011;38228;50.940;4.024;2024-03-08T11:47:11;27.98;;;15.73;;
52274;SDS011;38228;50.940;4.024;2024-03-08T11:49:40;26.45;;;14.68;;
52274;SDS011;38228;50.940;4.024;2024-03-08T11:52:13;26.58;;;15.82;;
52274;SDS011;38228;50.940;4.024;2024-03-08T11:55:01;27.08;;;15.68;;
52274;SDS011;38228;50.940;4.024;2024-03-08T11:57:26;24.77;;;14.95;;
52274;SDS011;38228;50.940;4.024;2024-03-08T11:59:54;26.65;;;15.15;;
52274;SDS011;38228;50.940;4.024;2024-03-08T12:02:22;25.42;;;14.90;;
52274;SDS011;38228;50.940;4.024;2024-03-08T12:04:55;25.65;;;14.65;;
52274;SDS011;38228;50.940;4.024;2024-03-08T12:07:25;23.83;;;14.30;;
52274;SDS011;38228;50.940;4.024;2024-03-08T12:13:02;33.28;;;15.13;;
52274;SDS011;38228;50.940;4.024;2024-03-08T12:15:29;27.77;;;15.32;;
52274;SDS011;38228;50.940;4.024;2024-03-08T12:17:57;27.40;;;15.13;;
52274;SDS011;38228;50.940;4.024;2024-03-08T12:20:26;26.30;;;14.38;;
52274;SDS011;38228;50.940;4.024;2024-03-08T12:22:55;28.90;;;14.95;;
52274;SDS011;38228;50.940;4.024;2024-03-08T12:25:22;25.13;;;14.52;;
52274;SDS011;38228;50.940;4.024;2024-03-08T12:27:51;24.30;;;13.52;;
52274;SDS011;38228;50.940;4.024;2024-03-08T12:32:48;27.10;;;13.70;;
52274;SDS011;38228;50.940;4.024;2024-03-08T12:35:25;23.52;;;14.13;;
52274;SDS011;38228;50.940;4.024;2024-03-08T12:37:53;25.50;;;14.75;;
52274;SDS011;38228;50.940;4.024;2024-03-08T12:40:28;26.35;;;14.38;;
52274;SDS011;38228;50.940;4.024;2024-03-08T12:42:56;24.05;;;13.98;;
52274;SDS011;38228;50.940;4.024;2024-03-08T12:45:26;22.92;;;13.48;;
52274;SDS011;38228;50.940;4.024;2024-03-08T12:47:52;23.88;;;14.30;;
52274;SDS011;38228;50.940;4.024;2024-03-08T12:50:22;24.40;;;13.70;;
52274;SDS011;38228;50.940;4.024;2024-03-08T12:52:49;25.23;;;13.32;;
52274;SDS011;38228;50.940;4.024;2024-03-08T12:55:16;27.52;;;15.15;;
52274;SDS011;38228;50.940;4.024;2024-03-08T12:57:43;27.30;;;15.10;;
52274;SDS011;38228;50.940;4.024;2024-03-08T13:00:10;26.90;;;13.88;;
52274;SDS011;38228;50.940;4.024;2024-03-08T13:05:10;24.60;;;14.07;;
52274;SDS011;38228;50.940;4.024;2024-03-08T13:07:39;22.17;;;13.90;;
52274;SDS011;38228;50.940;4.024;2024-03-08T13:10:12;25.73;;;13.98;;
52274;SDS011;38228;50.940;4.024;2024-03-08T13:12:42;23.77;;;13.38;;
52274;SDS011;38228;50.940;4.024;2024-03-08T13:15:08;24.88;;;13.50;;
52274;SDS011;38228;50.940;4.024;2024-03-08T13:17:40;22.90;;;12.88;;
52274;SDS011;38228;50.940;4.024;2024-03-08T13:20:07;21.55;;;13.45;;
52274;SDS011;38228;50.940;4.024;2024-03-08T13:22:34;27.02;;;14.70;;
52274;SDS011;38228;50.940;4.024;2024-03-08T13:25:00;23.33;;;13.73;;
52274;SDS011;38228;50.940;4.024;2024-03-08T13:27:27;23.23;;;13.90;;
52274;SDS011;38228;50.940;4.024;2024-03-08T13:29:53;23.40;;;14.15;;
52274;SDS011;38228;50.940;4.024;2024-03-08T13:32:19;23.73;;;13.93;;
52274;SDS011;38228;50.940;4.024;2024-03-08T13:34:45;22.15;;;13.68;;
52274;SDS011;38228;50.940;4.024;2024-03-08T13:37:19;26.35;;;14.55;;
52274;SDS011;38228;50.940;4.024;2024-03-08T13:39:44;25.25;;;13.70;;
52274;SDS011;38228;50.940;4.024;2024-03-08T13:42:11;21.75;;;12.43;;
52274;SDS011;38228;50.940;4.024;2024-03-08T13:44:47;22.55;;;13.18;;
52274;SDS011;38228;50.940;4.024;2024-03-08T13:47:16;21.38;;;11.43;;
52274;SDS011;38228;50.940;4.024;2024-03-08T13:49:42;22.90;;;13.30;;
52274;SDS011;38228;50.940;4.024;2024-03-08T13:52:09;27.38;;;15.35;;
52274;SDS011;38228;50.940;4.024;2024-03-08T13:54:35;20.92;;;11.98;;
52274;SDS011;38228;50.940;4.024;2024-03-08T13:57:02;21.70;;;12.15;;
52274;SDS011;38228;50.940;4.024;2024-03-08T13:59:32;25.48;;;12.85;;
52274;SDS011;38228;50.940;4.024;2024-03-08T14:02:00;20.23;;;12.05;;
52274;SDS011;38228;50.940;4.024;2024-03-08T14:04:29;21.85;;;12.68;;
52274;SDS011;38228;50.940;4.024;2024-03-08T14:06:55;22.75;;;13.23;;
52274;SDS011;38228;50.940;4.024;2024-03-08T14:09:28;20.92;;;13.23;;
52274;SDS011;38228;50.940;4.024;2024-03-08T14:11:56;25.05;;;12.85;;
52274;SDS011;38228;50.940;4.024;2024-03-08T14:14:22;19.77;;;12.35;;
52274;SDS011;38228;50.940;4.024;2024-03-08T14:16:48;26.98;;;13.20;;
52274;SDS011;38228;50.940;4.024;2024-03-08T14:19:17;23.52;;;13.25;;
52274;SDS011;38228;50.940;4.024;2024-03-08T14:21:44;19.00;;;11.88;;
52274;SDS011;38228;50.940;4.024;2024-03-08T14:24:10;19.95;;;12.77;;
52274;SDS011;38228;50.940;4.024;2024-03-08T14:26:35;21.20;;;13.27;;
52274;SDS011;38228;50.940;4.024;2024-03-08T14:29:03;22.55;;;12.80;;
52274;SDS011;38228;50.940;4.024;2024-03-08T14:31:30;25.30;;;12.35;;
52274;SDS011;38228;50.940;4.024;2024-03-08T14:33:56;20.17;;;12.63;;
52274;SDS011;38228;50.940;4.024;2024-03-08T14:36:24;22.10;;;13.30;;
52274;SDS011;38228;50.940;4.024;2024-03-08T14:38:51;22.83;;;12.90;;
52274;SDS011;38228;50.940;4.024;2024-03-08T14:41:20;21.75;;;13.82;;
52274;SDS011;38228;50.940;4.024;2024-03-08T14:43:47;22.92;;;13.13;;
52274;SDS011;38228;50.940;4.024;2024-03-08T14:46:16;22.15;;;13.00;;
52274;SDS011;38228;50.940;4.024;2024-03-08T14:48:48;21.58;;;12.63;;
52274;SDS011;38228;50.940;4.024;2024-03-08T14:51:17;21.08;;;12.85;;